Time,TemperatureF,DewpointF,PressureIn,WindDirection,WindDirectionDegrees,WindSpeedMPH,WindSpeedGustMPH,Humidity,HourlyPrecipIn,Conditions,Clouds,dailyrainin,SolarRadiationWatts/m^2,SoftwareType,DateUTC
2013-12-05 00:00:00,30.2,26.8,29.86,WNW,291,14.0,14.0,87,0.00,,,0.00,0,Wunderground v.1.15,2013-12-05 06:00:00,
2013-12-05 00:05:00,30.0,26.3,29.85,West,278,14.0,14.0,86,0.00,,,0.00,0,Wunderground v.1.15,2013-12-05 06:05:00,
2013-12-05 00:10:00,29.8,26.4,29.85,West,274,13.0,13.0,87,0.00,,,0.00,0,Wunderground v.1.15,2013-12-05 06:10:00,
2013-12-05 00:19:00,29.7,26.6,29.87,West,274,11.0,19.0,88,0.00,,,0.00,0,Wunderground v.1.15,2013-12-05 06:19:00,
2013-12-05 00:24:00,29.6,26.2,29.86,West,273,13.0,19.0,87,0.00,,,0.00,0,Wunderground v.1.15,2013-12-05 06:24:00,
2013-12-05 00:29:00,29.4,26.0,29.87,WNW,288,15.0,15.0,87,0.00,,,0.00,0,Wunderground v.1.15,2013-12-05 06:29:00,
2013-12-05 00:34:00,29.2,25.8,29.87,West,279,15.0,15.0,87,0.00,,,0.00,0,Wunderground v.1.15,2013-12-05 06:34:00,
2013-12-05 00:40:00,29.1,25.7,29.87,WNW,292,14.0,17.0,87,0.00,,,0.00,0,Wunderground v.1.15,2013-12-05 06:40:00,
2013-12-05 00:45:00,28.9,25.5,29.88,West,278,14.0,17.0,87,0.00,,,0.00,0,Wunderground v.1.15,2013-12-05 06:45:00,
2013-12-05 00:50:00,28.9,25.5,29.88,WNW,285,15.0,15.0,87,0.00,,,0.00,0,Wunderground v.1.15,2013-12-05 06:50:00,
2013-12-05 00:55:00,28.9,25.5,29.88,WNW,292,14.0,15.0,87,0.00,,,0.00,0,Wunderground v.1.15,2013-12-05 06:55:00,
2013-12-05 01:00:00,28.8,25.4,29.88,WNW,287,14.0,14.0,87,0.00,,,0.00,0,Wunderground v.1.15,2013-12-05 07:00:00,
2013-12-05 01:10:00,28.7,25.3,29.87,WNW,291,12.0,15.0,87,0.00,,,0.00,0,Wunderground v.1.15,2013-12-05 07:10:00,
2013-12-05 01:15:00,28.6,25.2,29.88,West,281,13.0,15.0,87,0.00,,,0.00,0,Wunderground v.1.15,2013-12-05 07:15:00,
2013-12-05 01:25:00,28.4,24.7,29.89,West,279,15.0,19.0,86,0.00,,,0.00,0,Wunderground v.1.15,2013-12-05 07:25:00,
2013-12-05 01:30:00,28.2,24.3,29.90,WNW,282,16.0,17.0,85,0.00,,,0.00,0,Wunderground v.1.15,2013-12-05 07:30:00,
2013-12-05 01:35:00,28.1,24.5,29.90,WNW,286,16.0,17.0,86,0.00,,,0.00,0,Wunderground v.1.15,2013-12-05 07:35:00,
2013-12-05 01:40:00,27.9,24.3,29.90,West,281,16.0,16.0,86,0.00,,,0.00,0,Wunderground v.1.15,2013-12-05 07:40:00,
2013-12-05 01:45:00,27.9,24.3,29.90,West,281,14.0,16.0,86,0.00,,,0.00,0,Wunderground v.1.15,2013-12-05 07:45:00,
2013-12-05 01:55:00,27.6,23.7,29.92,WNW,282,16.0,19.0,85,0.00,,,0.00,0,Wunderground v.1.15,2013-12-05 07:55:00,
2013-12-05 02:00:00,27.4,23.5,29.92,West,279,16.0,16.0,85,0.00,,,0.00,0,Wunderground v.1.15,2013-12-05 08:00:00,
2013-12-05 02:05:00,27.2,23.3,29.91,WNW,283,15.0,16.0,85,0.00,,,0.00,0,Wunderground v.1.15,2013-12-05 08:05:00,
2013-12-05 02:10:00,27.1,23.2,29.92,West,281,14.0,17.0,85,0.00,,,0.00,0,Wunderground v.1.15,2013-12-05 08:10:00,
2013-12-05 02:15:00,27.0,23.1,29.92,WNW,290,14.0,17.0,85,0.00,,,0.00,0,Wunderground v.1.15,2013-12-05 08:15:00,
2013-12-05 02:20:00,27.0,23.4,29.93,West,279,12.0,16.0,86,0.00,,,0.00,0,Wunderground v.1.15,2013-12-05 08:20:00,
2013-12-05 02:30:00,26.9,23.3,29.93,WNW,289,14.0,14.0,86,0.00,,,0.00,0,Wunderground v.1.15,2013-12-05 08:30:00,
2013-12-05 02:35:00,26.5,22.3,29.93,WNW,283,15.0,16.0,84,0.00,,,0.00,0,Wunderground v.1.15,2013-12-05 08:35:00,
2013-12-05 02:40:00,26.3,22.1,29.94,WNW,292,16.0,16.0,84,0.00,,,0.00,0,Wunderground v.1.15,2013-12-05 08:40:00,
2013-12-05 02:45:00,26.4,22.5,29.95,WNW,289,15.0,16.0,85,0.00,,,0.00,0,Wunderground v.1.15,2013-12-05 08:45:00,
2013-12-05 02:50:00,26.3,22.1,29.95,WNW,289,16.0,16.0,84,0.00,,,0.00,0,Wunderground v.1.15,2013-12-05 08:50:00,
2013-12-05 03:00:00,26.3,22.1,29.96,West,279,15.0,15.0,84,0.00,,,0.00,0,Wunderground v.1.15,2013-12-05 09:00:00,
2013-12-05 03:05:00,26.2,21.7,29.95,West,281,15.0,15.0,83,0.00,,,0.00,0,Wunderground v.1.15,2013-12-05 09:05:00,
2013-12-05 03:10:00,26.3,22.1,29.96,West,279,14.0,18.0,84,0.00,,,0.00,0,Wunderground v.1.15,2013-12-05 09:10:00,
2013-12-05 03:15:00,26.3,21.8,29.96,WNW,292,14.0,18.0,83,0.00,,,0.00,0,Wunderground v.1.15,2013-12-05 09:15:00,
2013-12-05 03:20:00,26.2,21.7,29.96,WNW,285,16.0,16.0,83,0.00,,,0.00,0,Wunderground v.1.15,2013-12-05 09:20:00,
2013-12-05 03:25:00,26.2,21.5,29.96,WNW,283,17.0,17.0,82,0.00,,,0.00,0,Wunderground v.1.15,2013-12-05 09:25:00,
2013-12-05 03:35:00,26.2,21.5,29.96,WNW,292,15.0,15.0,82,0.00,,,0.00,0,Wunderground v.1.15,2013-12-05 09:35:00,
2013-12-05 03:40:00,26.2,21.5,29.95,WNW,286,16.0,19.0,82,0.00,,,0.00,0,Wunderground v.1.15,2013-12-05 09:40:00,
2013-12-05 03:45:00,26.1,21.4,29.95,WNW,286,16.0,19.0,82,0.00,,,0.00,0,Wunderground v.1.15,2013-12-05 09:45:00,
2013-12-05 03:50:00,26.1,21.4,29.95,WNW,294,16.0,16.0,82,0.00,,,0.00,0,Wunderground v.1.15,2013-12-05 09:50:00,
2013-12-05 03:55:00,26.1,21.6,29.95,WNW,291,15.0,16.0,83,0.00,,,0.00,0,Wunderground v.1.15,2013-12-05 09:55:00,
2013-12-05 04:05:00,26.1,21.6,29.97,West,278,14.0,24.0,83,0.00,,,0.00,0,Wunderground v.1.15,2013-12-05 10:05:00,
2013-12-05 04:10:00,26.1,21.6,29.96,WNW,296,15.0,15.0,83,0.00,,,0.00,0,Wunderground v.1.15,2013-12-05 10:10:00,
2013-12-05 04:15:00,26.1,21.9,29.97,WNW,288,14.0,16.0,84,0.00,,,0.00,0,Wunderground v.1.15,2013-12-05 10:15:00,
2013-12-05 04:20:00,26.0,21.5,29.99,NW,304,14.0,17.0,83,0.00,,,0.00,0,Wunderground v.1.15,2013-12-05 10:20:00,
2013-12-05 04:25:00,25.9,21.4,30.00,WNW,294,16.0,17.0,83,0.00,,,0.00,0,Wunderground v.1.15,2013-12-05 10:25:00,
2013-12-05 04:30:00,25.8,21.3,30.00,WNW,303,16.0,16.0,83,0.00,,,0.00,0,Wunderground v.1.15,2013-12-05 10:30:00,
2013-12-05 04:40:00,25.5,21.3,30.00,WNW,298,15.0,16.0,84,0.00,,,0.00,0,Wunderground v.1.15,2013-12-05 10:40:00,
2013-12-05 04:45:00,25.4,21.2,30.02,West,281,14.0,16.0,84,0.00,,,0.00,0,Wunderground v.1.15,2013-12-05 10:45:00,
2013-12-05 04:50:00,25.2,20.8,30.02,WNW,300,15.0,18.0,83,0.00,,,0.00,0,Wunderground v.1.15,2013-12-05 10:50:00,
2013-12-05 04:55:00,25.2,20.8,30.02,WNW,301,17.0,18.0,83,0.00,,,0.00,0,Wunderground v.1.15,2013-12-05 10:55:00,
2013-12-05 05:00:00,25.0,20.6,30.02,WNW,297,17.0,17.0,83,0.00,,,0.00,0,Wunderground v.1.15,2013-12-05 11:00:00,
2013-12-05 05:05:00,24.9,20.5,30.03,NW,306,16.0,17.0,83,0.00,,,0.00,0,Wunderground v.1.15,2013-12-05 11:05:00,
2013-12-05 05:10:00,24.9,20.8,30.00,West,281,16.0,17.0,84,0.00,,,0.00,0,Wunderground v.1.15,2013-12-05 11:10:00,
2013-12-05 05:15:00,24.7,20.3,30.03,WNW,298,15.0,18.0,83,0.00,,,0.00,0,Wunderground v.1.15,2013-12-05 11:15:00,
2013-12-05 05:20:00,24.7,20.6,30.04,WNW,291,14.0,14.0,84,0.00,,,0.00,0,Wunderground v.1.15,2013-12-05 11:20:00,
2013-12-05 05:25:00,24.7,20.3,30.05,WNW,289,14.0,16.0,83,0.00,,,0.00,0,Wunderground v.1.15,2013-12-05 11:25:00,
2013-12-05 05:30:00,24.7,20.3,30.05,WNW,292,14.0,14.0,83,0.00,,,0.00,0,Wunderground v.1.15,2013-12-05 11:30:00,
2013-12-05 05:35:00,24.6,19.6,30.05,WNW,288,14.0,15.0,81,0.00,,,0.00,0,Wunderground v.1.15,2013-12-05 11:35:00,
2013-12-05 05:45:00,24.4,19.7,30.04,WNW,284,14.0,14.0,82,0.00,,,0.00,0,Wunderground v.1.15,2013-12-05 11:45:00,
2013-12-05 05:50:00,24.3,19.3,30.05,West,277,14.0,14.0,81,0.00,,,0.00,0,Wunderground v.1.15,2013-12-05 11:50:00,
2013-12-05 05:55:00,24.0,19.3,30.05,WNW,292,14.0,16.0,82,0.00,,,0.00,0,Wunderground v.1.15,2013-12-05 11:55:00,
2013-12-05 06:00:00,23.8,19.1,30.05,WNW,302,16.0,16.0,82,0.00,,,0.00,0,Wunderground v.1.15,2013-12-05 12:00:00,
2013-12-05 06:05:00,23.6,18.9,30.05,WNW,290,16.0,16.0,82,0.00,,,0.00,0,Wunderground v.1.15,2013-12-05 12:05:00,
2013-12-05 06:15:00,23.6,19.2,30.07,WNW,300,13.0,15.0,83,0.00,,,0.00,0,Wunderground v.1.15,2013-12-05 12:15:00,
2013-12-05 06:20:00,23.5,18.8,30.07,WNW,300,14.0,14.0,82,0.00,,,0.00,0,Wunderground v.1.15,2013-12-05 12:20:00,
2013-12-05 06:25:00,23.3,18.3,30.07,WNW,294,16.0,16.0,81,0.00,,,0.00,0,Wunderground v.1.15,2013-12-05 12:25:00,
2013-12-05 06:30:00,23.1,18.1,30.08,WNW,295,16.0,16.0,81,0.00,,,0.00,0,Wunderground v.1.15,2013-12-05 12:30:00,
2013-12-05 06:35:00,23.1,18.4,30.08,WNW,300,15.0,16.0,82,0.00,,,0.00,0,Wunderground v.1.15,2013-12-05 12:35:00,
2013-12-05 06:40:00,23.2,18.8,30.09,WNW,290,14.0,14.0,83,0.00,,,0.00,0,Wunderground v.1.15,2013-12-05 12:40:00,
2013-12-05 06:50:00,23.1,18.4,30.09,WNW,288,14.0,14.0,82,0.00,,,0.00,0,Wunderground v.1.15,2013-12-05 12:50:00,
2013-12-05 06:55:00,23.0,18.3,30.09,WNW,293,14.0,14.0,82,0.00,,,0.00,0,Wunderground v.1.15,2013-12-05 12:55:00,
2013-12-05 07:00:00,23.0,18.3,30.10,WNW,300,13.0,15.0,82,0.00,,,0.00,0,Wunderground v.1.15,2013-12-05 13:00:00,
2013-12-05 07:05:00,22.9,18.5,30.10,WNW,298,13.0,15.0,83,0.00,,,0.00,0,Wunderground v.1.15,2013-12-05 13:05:00,
2013-12-05 07:10:00,22.7,18.0,30.10,NW,310,14.0,15.0,82,0.00,,,0.00,0,Wunderground v.1.15,2013-12-05 13:10:00,
2013-12-05 07:20:00,22.5,17.5,30.10,WNW,300,15.0,15.0,81,0.00,,,0.00,5,Wunderground v.1.15,2013-12-05 13:20:00,
2013-12-05 07:25:00,22.2,17.0,30.11,WNW,288,16.0,18.0,80,0.00,,,0.00,11,Wunderground v.1.15,2013-12-05 13:25:00,
2013-12-05 07:30:00,21.6,16.1,30.11,WNW,302,17.0,18.0,79,0.00,,,0.00,12,Wunderground v.1.15,2013-12-05 13:30:00,
2013-12-05 07:35:00,21.2,16.0,30.12,WNW,298,16.0,18.0,80,0.00,,,0.00,14,Wunderground v.1.15,2013-12-05 13:35:00,
2013-12-05 07:40:00,20.9,15.7,30.12,WNW,298,16.0,16.0,80,0.00,,,0.00,14,Wunderground v.1.15,2013-12-05 13:40:00,
2013-12-05 07:45:00,20.8,15.3,30.12,WNW,299,16.0,16.0,79,0.00,,,0.00,18,Wunderground v.1.15,2013-12-05 13:45:00,
2013-12-05 07:55:00,20.3,15.1,30.12,WNW,301,15.0,17.0,80,0.00,,,0.00,28,Wunderground v.1.15,2013-12-05 13:55:00,
2013-12-05 08:00:00,20.2,15.0,30.13,WNW,296,15.0,15.0,80,0.00,,,0.00,32,Wunderground v.1.15,2013-12-05 14:00:00,
2013-12-05 08:05:00,20.1,15.2,30.14,WNW,298,15.0,15.0,81,0.00,,,0.00,35,Wunderground v.1.15,2013-12-05 14:05:00,
2013-12-05 08:10:00,20.0,14.8,30.14,WNW,290,16.0,19.0,80,0.00,,,0.00,40,Wunderground v.1.15,2013-12-05 14:10:00,
2013-12-05 08:15:00,19.8,14.3,30.14,WNW,297,16.0,19.0,79,0.00,,,0.00,47,Wunderground v.1.15,2013-12-05 14:15:00,
2013-12-05 08:25:00,19.7,14.2,30.14,WNW,291,16.0,16.0,79,0.00,,,0.00,84,Wunderground v.1.15,2013-12-05 14:25:00,
2013-12-05 08:30:00,19.6,14.1,30.13,WNW,298,17.0,17.0,79,0.00,,,0.00,79,Wunderground v.1.15,2013-12-05 14:30:00,
2013-12-05 08:35:00,19.5,14.0,30.13,WNW,300,18.0,20.0,79,0.00,,,0.00,79,Wunderground v.1.15,2013-12-05 14:35:00,
2013-12-05 08:40:00,19.4,13.7,30.14,WNW,302,17.0,19.0,78,0.00,,,0.00,88,Wunderground v.1.15,2013-12-05 14:40:00,
2013-12-05 08:45:00,19.1,13.1,30.14,WNW,292,17.0,19.0,77,0.00,,,0.00,97,Wunderground v.1.15,2013-12-05 14:45:00,
2013-12-05 08:50:00,19.1,13.7,30.14,WNW,292,16.0,16.0,79,0.00,,,0.00,97,Wunderground v.1.15,2013-12-05 14:50:00,
2013-12-05 09:00:00,18.9,13.2,30.15,WNW,300,18.0,18.0,78,0.00,,,0.00,98,Wunderground v.1.15,2013-12-05 15:00:00,
2013-12-05 09:05:00,19.0,13.6,30.15,NW,304,18.0,18.0,79,0.00,,,0.00,105,Wunderground v.1.15,2013-12-05 15:05:00,
2013-12-05 09:10:00,19.0,13.6,30.15,WNW,288,18.0,18.0,79,0.00,,,0.00,107,Wunderground v.1.15,2013-12-05 15:10:00,
2013-12-05 09:15:00,18.9,13.5,30.15,WNW,293,17.0,18.0,79,0.00,,,0.00,113,Wunderground v.1.15,2013-12-05 15:15:00,
2013-12-05 09:20:00,18.8,12.8,30.16,NW,306,18.0,20.0,77,0.00,,,0.00,114,Wunderground v.1.15,2013-12-05 15:20:00,
2013-12-05 09:30:00,18.8,13.1,30.16,WNW,300,18.0,19.0,78,0.00,,,0.00,123,Wunderground v.1.15,2013-12-05 15:30:00,
2013-12-05 09:35:00,18.7,12.7,30.17,NW,304,18.0,19.0,77,0.00,,,0.00,135,Wunderground v.1.15,2013-12-05 15:35:00,
2013-12-05 09:40:00,18.6,12.9,30.17,WNW,300,18.0,19.0,78,0.00,,,0.00,149,Wunderground v.1.15,2013-12-05 15:40:00,
2013-12-05 09:45:00,18.5,12.5,30.17,WNW,302,19.0,21.0,77,0.00,,,0.00,167,Wunderground v.1.15,2013-12-05 15:45:00,
2013-12-05 09:50:00,18.5,12.2,30.17,WNW,298,19.0,19.0,76,0.00,,,0.00,149,Wunderground v.1.15,2013-12-05 15:50:00,
2013-12-05 09:55:00,18.7,12.7,30.17,WNW,302,18.0,19.0,77,0.00,,,0.00,156,Wunderground v.1.15,2013-12-05 15:55:00,
2013-12-05 10:05:00,19.0,13.0,30.19,WNW,303,17.0,17.0,77,0.00,,,0.00,156,Wunderground v.1.15,2013-12-05 16:05:00,
2013-12-05 10:10:00,19.1,12.8,30.19,WNW,300,16.0,16.0,76,0.00,,,0.00,169,Wunderground v.1.15,2013-12-05 16:10:00,
2013-12-05 10:19:00,19.2,12.9,30.19,NW,305,16.0,16.0,76,0.00,,,0.00,193,Wunderground v.1.15,2013-12-05 16:19:00,
2013-12-05 10:24:00,19.4,13.4,30.20,WNW,296,15.0,16.0,77,0.00,,,0.00,179,Wunderground v.1.15,2013-12-05 16:24:00,
2013-12-05 10:29:00,19.6,13.6,30.19,WNW,302,15.0,19.0,77,0.00,,,0.00,167,Wunderground v.1.15,2013-12-05 16:29:00,
2013-12-05 10:35:00,19.7,13.4,30.19,NW,310,15.0,19.0,76,0.00,,,0.00,169,Wunderground v.1.15,2013-12-05 16:35:00,
2013-12-05 10:40:00,19.8,13.5,30.19,NW,305,17.0,17.0,76,0.00,,,0.00,188,Wunderground v.1.15,2013-12-05 16:40:00,
2013-12-05 10:45:00,19.9,13.6,30.19,NW,319,16.0,17.0,76,0.00,,,0.00,218,Wunderground v.1.15,2013-12-05 16:45:00,
2013-12-05 10:50:00,20.1,14.0,30.19,NW,315,16.0,16.0,77,0.00,,,0.00,251,Wunderground v.1.15,2013-12-05 16:50:00,
2013-12-05 10:55:00,20.4,14.3,30.18,NW,314,15.0,16.0,77,0.00,,,0.00,248,Wunderground v.1.15,2013-12-05 16:55:00,
2013-12-05 11:00:00,20.5,13.8,30.17,WNW,297,15.0,15.0,75,0.00,,,0.00,244,Wunderground v.1.15,2013-12-05 17:00:00,
2013-12-05 11:09:00,20.8,14.4,30.18,WNW,302,15.0,15.0,76,0.00,,,0.00,243,Wunderground v.1.15,2013-12-05 17:09:00,
2013-12-05 11:14:00,20.9,14.5,30.18,WNW,299,15.0,15.0,76,0.00,,,0.00,220,Wunderground v.1.15,2013-12-05 17:14:00,
2013-12-05 11:19:00,21.0,14.6,30.18,NW,311,14.0,16.0,76,0.00,,,0.00,229,Wunderground v.1.15,2013-12-05 17:19:00,
2013-12-05 11:24:00,21.0,14.3,30.18,NW,315,15.0,16.0,75,0.00,,,0.00,229,Wunderground v.1.15,2013-12-05 17:24:00,
2013-12-05 11:29:00,21.2,14.5,30.18,NW,305,15.0,15.0,75,0.00,,,0.00,234,Wunderground v.1.15,2013-12-05 17:29:00,
2013-12-05 11:34:00,21.4,14.7,30.19,WNW,298,14.0,15.0,75,0.00,,,0.00,246,Wunderground v.1.15,2013-12-05 17:34:00,
2013-12-05 11:40:00,21.4,14.4,30.19,NW,313,14.0,15.0,74,0.00,,,0.00,237,Wunderground v.1.15,2013-12-05 17:40:00,
2013-12-05 11:45:00,21.5,14.8,30.19,WNW,293,14.0,15.0,75,0.00,,,0.00,239,Wunderground v.1.15,2013-12-05 17:45:00,
2013-12-05 11:50:00,21.6,14.6,30.19,NW,307,14.0,14.0,74,0.00,,,0.00,223,Wunderground v.1.15,2013-12-05 17:50:00,
2013-12-05 11:55:00,21.7,15.0,30.18,NW,313,14.0,16.0,75,0.00,,,0.00,229,Wunderground v.1.15,2013-12-05 17:55:00,
2013-12-05 12:00:00,21.9,15.2,30.19,WNW,300,14.0,15.0,75,0.00,,,0.00,236,Wunderground v.1.15,2013-12-05 18:00:00,
2013-12-05 12:09:00,21.9,14.6,30.20,WNW,300,16.0,16.0,73,0.00,,,0.00,223,Wunderground v.1.15,2013-12-05 18:09:00,
2013-12-05 12:15:00,21.8,14.5,30.20,NW,313,16.0,16.0,73,0.00,,,0.00,221,Wunderground v.1.15,2013-12-05 18:15:00,
2013-12-05 12:20:00,21.6,14.0,30.20,NW,310,15.0,15.0,72,0.00,,,0.00,207,Wunderground v.1.15,2013-12-05 18:20:00,
2013-12-05 12:25:00,21.7,14.4,30.19,NW,306,14.0,15.0,73,0.00,,,0.00,199,Wunderground v.1.15,2013-12-05 18:25:00,
2013-12-05 12:30:00,21.8,14.2,30.19,WNW,286,13.0,13.0,72,0.00,,,0.00,193,Wunderground v.1.15,2013-12-05 18:30:00,
2013-12-05 12:35:00,21.8,14.5,30.19,NW,309,13.0,13.0,73,0.00,,,0.00,186,Wunderground v.1.15,2013-12-05 18:35:00,
2013-12-05 12:40:00,22.0,14.7,30.19,NW,316,13.0,16.0,73,0.00,,,0.00,183,Wunderground v.1.15,2013-12-05 18:40:00,
2013-12-05 12:45:00,22.0,14.7,30.19,NW,304,13.0,16.0,73,0.00,,,0.00,179,Wunderground v.1.15,2013-12-05 18:45:00,
2013-12-05 12:50:00,22.2,14.9,30.19,WNW,297,13.0,13.0,73,0.00,,,0.00,185,Wunderground v.1.15,2013-12-05 18:50:00,
2013-12-05 12:55:00,22.2,14.5,30.19,WNW,303,13.0,14.0,72,0.00,,,0.00,185,Wunderground v.1.15,2013-12-05 18:55:00,
2013-12-05 13:00:00,22.2,14.5,30.19,NW,315,14.0,15.0,72,0.00,,,0.00,169,Wunderground v.1.15,2013-12-05 19:00:00,
2013-12-05 13:10:00,22.1,14.1,30.20,NW,306,14.0,16.0,71,0.00,,,0.00,151,Wunderground v.1.15,2013-12-05 19:10:00,
2013-12-05 13:20:00,21.7,13.7,30.22,WNW,303,14.0,14.0,71,0.00,,,0.00,142,Wunderground v.1.15,2013-12-05 19:20:00,
2013-12-05 13:25:00,21.9,13.9,30.21,WNW,295,13.0,14.0,71,0.00,,,0.00,149,Wunderground v.1.15,2013-12-05 19:25:00,
2013-12-05 13:30:00,21.9,13.9,30.22,WNW,298,13.0,13.0,71,0.00,,,0.00,142,Wunderground v.1.15,2013-12-05 19:30:00,
2013-12-05 13:35:00,22.0,14.0,30.21,WNW,301,12.0,13.0,71,0.00,,,0.00,144,Wunderground v.1.15,2013-12-05 19:35:00,
2013-12-05 13:40:00,22.0,14.0,30.21,WNW,292,13.0,13.0,71,0.00,,,0.00,137,Wunderground v.1.15,2013-12-05 19:40:00,
2013-12-05 13:45:00,21.9,13.6,30.21,NW,317,15.0,18.0,70,0.00,,,0.00,125,Wunderground v.1.15,2013-12-05 19:45:00,
2013-12-05 13:54:00,21.7,13.4,30.21,NW,313,17.0,17.0,70,0.00,,,0.00,109,Wunderground v.1.15,2013-12-05 19:54:00,
2013-12-05 13:59:00,21.9,13.9,30.21,NW,313,16.0,18.0,71,0.00,,,0.00,81,Wunderground v.1.15,2013-12-05 19:59:00,
2013-12-05 14:05:00,21.9,14.3,30.21,WNW,297,15.0,18.0,72,0.00,,,0.00,74,Wunderground v.1.15,2013-12-05 20:05:00,
2013-12-05 14:10:00,21.9,13.9,30.21,WNW,298,14.0,14.0,71,0.00,,,0.00,88,Wunderground v.1.15,2013-12-05 20:10:00,
2013-12-05 14:15:00,21.7,13.7,30.20,NW,314,14.0,14.0,71,0.00,,,0.00,93,Wunderground v.1.15,2013-12-05 20:15:00,
2013-12-05 14:25:00,21.6,13.6,30.21,NW,311,15.0,15.0,71,0.00,,,0.00,74,Wunderground v.1.15,2013-12-05 20:25:00,
2013-12-05 14:30:00,21.6,13.3,30.21,WNW,290,14.0,15.0,70,0.00,,,0.00,72,Wunderground v.1.15,2013-12-05 20:30:00,
2013-12-05 14:35:00,21.6,13.6,30.21,NW,306,13.0,15.0,71,0.00,,,0.00,74,Wunderground v.1.15,2013-12-05 20:35:00,
2013-12-05 14:40:00,21.7,13.4,30.22,WNW,296,13.0,13.0,70,0.00,,,0.00,83,Wunderground v.1.15,2013-12-05 20:40:00,
2013-12-05 14:45:00,21.7,14.1,30.21,NW,311,12.0,13.0,72,0.00,,,0.00,72,Wunderground v.1.15,2013-12-05 20:45:00,
2013-12-05 14:50:00,21.8,13.5,30.21,NW,317,11.0,11.0,70,0.00,,,0.00,65,Wunderground v.1.15,2013-12-05 20:50:00,
2013-12-05 14:59:00,21.9,13.6,30.20,NW,312,13.0,15.0,70,0.00,,,0.00,62,Wunderground v.1.15,2013-12-05 20:59:00,
2013-12-05 15:05:00,21.9,13.9,30.21,NW,309,14.0,15.0,71,0.00,,,0.00,60,Wunderground v.1.15,2013-12-05 21:05:00,
2013-12-05 15:10:00,21.9,13.9,30.20,NW,313,13.0,13.0,71,0.00,,,0.00,62,Wunderground v.1.15,2013-12-05 21:10:00,
2013-12-05 15:15:00,22.0,14.3,30.21,NW,315,11.0,13.0,72,0.00,,,0.00,60,Wunderground v.1.15,2013-12-05 21:15:00,
2013-12-05 15:20:00,22.0,14.3,30.22,NW,315,7.0,7.0,72,0.00,,,0.00,60,Wunderground v.1.15,2013-12-05 21:20:00,
2013-12-05 15:30:00,21.5,13.2,30.23,NW,316,13.0,13.0,70,0.00,,,0.00,40,Wunderground v.1.15,2013-12-05 21:30:00,
2013-12-05 15:35:00,21.5,13.5,30.23,NW,305,13.0,13.0,71,0.00,,,0.00,40,Wunderground v.1.15,2013-12-05 21:35:00,
2013-12-05 15:40:00,21.4,13.5,30.23,NW,306,12.0,13.0,71,0.00,,,0.00,28,Wunderground v.1.15,2013-12-05 21:40:00,
2013-12-05 15:45:00,21.3,13.4,30.23,NW,316,13.0,15.0,71,0.00,,,0.00,23,Wunderground v.1.15,2013-12-05 21:45:00,
2013-12-05 15:50:00,21.3,13.4,30.22,NW,309,13.0,13.0,71,0.00,,,0.00,19,Wunderground v.1.15,2013-12-05 21:50:00,
2013-12-05 15:55:00,21.3,13.4,30.23,NW,309,12.0,13.0,71,0.00,,,0.00,14,Wunderground v.1.15,2013-12-05 21:55:00,
2013-12-05 16:05:00,21.4,13.5,30.24,WNW,302,11.0,13.0,71,0.00,,,0.00,7,Wunderground v.1.15,2013-12-05 22:05:00,
2013-12-05 16:10:00,21.3,13.4,30.24,WNW,299,11.0,12.0,71,0.00,,,0.00,5,Wunderground v.1.15,2013-12-05 22:10:00,
2013-12-05 16:15:00,21.3,13.4,30.25,NW,310,12.0,14.0,71,0.00,,,0.00,0,Wunderground v.1.15,2013-12-05 22:15:00,
2013-12-05 16:25:00,21.3,13.4,30.26,WNW,296,11.0,12.0,71,0.00,,,0.00,0,Wunderground v.1.15,2013-12-05 22:25:00,
2013-12-05 16:35:00,21.4,13.8,30.26,NW,304,12.0,14.0,72,0.00,,,0.00,0,Wunderground v.1.15,2013-12-05 22:35:00,
2013-12-05 16:40:00,21.5,13.9,30.27,NW,311,12.0,12.0,72,0.00,,,0.00,0,Wunderground v.1.15,2013-12-05 22:40:00,
2013-12-05 16:45:00,21.5,13.5,30.27,NW,305,12.0,13.0,71,0.00,,,0.00,0,Wunderground v.1.15,2013-12-05 22:45:00,
2013-12-05 16:50:00,21.6,13.6,30.28,NW,317,12.0,13.0,71,0.00,,,0.00,0,Wunderground v.1.15,2013-12-05 22:50:00,
2013-12-05 16:55:00,21.5,13.5,30.28,NW,313,13.0,13.0,71,0.00,,,0.00,0,Wunderground v.1.15,2013-12-05 22:55:00,
2013-12-05 17:00:00,21.5,13.5,30.28,NW,318,12.0,12.0,71,0.00,,,0.00,0,Wunderground v.1.15,2013-12-05 23:00:00,
2013-12-05 17:09:00,21.3,13.0,30.29,NW,317,11.0,11.0,70,0.00,,,0.00,0,Wunderground v.1.15,2013-12-05 23:09:00,
2013-12-05 17:14:00,21.3,13.0,30.29,NW,313,10.0,11.0,70,0.00,,,0.00,0,Wunderground v.1.15,2013-12-05 23:14:00,
2013-12-05 17:19:00,21.3,13.4,30.28,NW,311,9.0,9.0,71,0.00,,,0.00,0,Wunderground v.1.15,2013-12-05 23:19:00,
2013-12-05 17:24:00,21.3,13.4,30.28,WNW,299,8.0,9.0,71,0.00,,,0.00,0,Wunderground v.1.15,2013-12-05 23:24:00,
2013-12-05 17:29:00,21.3,13.4,30.29,WNW,302,8.0,9.0,71,0.00,,,0.00,0,Wunderground v.1.15,2013-12-05 23:29:00,
2013-12-05 17:34:00,21.3,13.4,30.29,NW,311,9.0,10.0,71,0.00,,,0.00,0,Wunderground v.1.15,2013-12-05 23:34:00,
2013-12-05 17:40:00,21.2,13.3,30.29,NW,315,10.0,10.0,71,0.00,,,0.00,0,Wunderground v.1.15,2013-12-05 23:40:00,
2013-12-05 17:45:00,21.1,13.2,30.28,NW,316,9.0,10.0,71,0.00,,,0.00,0,Wunderground v.1.15,2013-12-05 23:45:00,
2013-12-05 17:50:00,21.0,12.7,30.29,NW,316,9.0,10.0,70,0.00,,,0.00,0,Wunderground v.1.15,2013-12-05 23:50:00,
2013-12-05 17:55:00,21.0,13.1,30.30,NW,316,10.0,11.0,71,0.00,,,0.00,0,Wunderground v.1.15,2013-12-05 23:55:00,
2013-12-05 18:00:00,21.1,13.8,30.30,NW,316,10.0,11.0,73,0.00,,,0.00,0,Wunderground v.1.15,2013-12-06 00:00:00,
2013-12-05 18:09:00,21.2,13.6,30.30,NW,307,10.0,10.0,72,0.00,,,0.00,0,Wunderground v.1.15,2013-12-06 00:09:00,
2013-12-05 18:14:00,21.2,13.3,30.30,WNW,301,11.0,11.0,71,0.00,,,0.00,0,Wunderground v.1.15,2013-12-06 00:14:00,
2013-12-05 18:19:00,21.1,13.2,30.31,NW,306,12.0,12.0,71,0.00,,,0.00,0,Wunderground v.1.15,2013-12-06 00:19:00,
2013-12-05 18:24:00,21.0,13.1,30.31,NW,304,11.0,12.0,71,0.00,,,0.00,0,Wunderground v.1.15,2013-12-06 00:24:00,
2013-12-05 18:29:00,21.0,13.1,30.31,WNW,297,10.0,10.0,71,0.00,,,0.00,0,Wunderground v.1.15,2013-12-06 00:29:00,
2013-12-05 18:35:00,21.0,13.1,30.31,NW,309,10.0,11.0,71,0.00,,,0.00,0,Wunderground v.1.15,2013-12-06 00:35:00,
2013-12-05 18:40:00,21.0,13.1,30.32,NW,309,11.0,14.0,71,0.00,,,0.00,0,Wunderground v.1.15,2013-12-06 00:40:00,
2013-12-05 18:45:00,20.9,13.0,30.31,NW,310,12.0,14.0,71,0.00,,,0.00,0,Wunderground v.1.15,2013-12-06 00:45:00,
2013-12-05 18:50:00,20.9,13.0,30.31,NW,315,12.0,12.0,71,0.00,,,0.00,0,Wunderground v.1.15,2013-12-06 00:50:00,
2013-12-05 18:55:00,20.9,13.3,30.31,NW,307,10.0,12.0,72,0.00,,,0.00,0,Wunderground v.1.15,2013-12-06 00:55:00,
2013-12-05 19:00:00,21.0,13.4,30.31,NW,309,10.0,10.0,72,0.00,,,0.00,0,Wunderground v.1.15,2013-12-06 01:00:00,
2013-12-05 19:10:00,21.0,13.4,30.31,NW,310,10.0,10.0,72,0.00,,,0.00,0,Wunderground v.1.15,2013-12-06 01:10:00,
2013-12-05 19:20:00,20.9,13.0,30.31,WNW,302,12.0,12.0,71,0.00,,,0.00,0,Wunderground v.1.15,2013-12-06 01:20:00,
2013-12-05 19:25:00,20.9,13.3,30.32,NW,312,11.0,14.0,72,0.00,,,0.00,0,Wunderground v.1.15,2013-12-06 01:25:00,
2013-12-05 19:30:00,20.9,13.3,30.32,NW,314,11.0,11.0,72,0.00,,,0.00,0,Wunderground v.1.15,2013-12-06 01:30:00,
2013-12-05 19:35:00,20.9,13.3,30.31,NW,313,11.0,11.0,72,0.00,,,0.00,0,Wunderground v.1.15,2013-12-06 01:35:00,
2013-12-05 19:40:00,20.9,13.6,30.31,NW,313,9.0,11.0,73,0.00,,,0.00,0,Wunderground v.1.15,2013-12-06 01:40:00,
2013-12-05 19:45:00,20.9,13.3,30.31,NW,314,10.0,12.0,72,0.00,,,0.00,0,Wunderground v.1.15,2013-12-06 01:45:00,
2013-12-05 19:50:00,20.9,13.3,30.31,NW,315,10.0,10.0,72,0.00,,,0.00,0,Wunderground v.1.15,2013-12-06 01:50:00,
2013-12-05 19:55:00,20.9,13.6,30.31,NW,309,9.0,11.0,73,0.00,,,0.00,0,Wunderground v.1.15,2013-12-06 01:55:00,
2013-12-05 20:00:00,20.9,13.9,30.31,NW,311,11.0,13.0,74,0.00,,,0.00,0,Wunderground v.1.15,2013-12-06 02:00:00,
2013-12-05 20:10:00,20.9,13.9,30.31,NW,321,13.0,13.0,74,0.00,,,0.00,0,Wunderground v.1.15,2013-12-06 02:10:00,
2013-12-05 20:15:00,20.7,13.4,30.30,NW,320,13.0,13.0,73,0.00,,,0.00,0,Wunderground v.1.15,2013-12-06 02:15:00,
2013-12-05 20:25:00,20.6,13.6,30.31,NW,315,12.0,13.0,74,0.00,,,0.00,0,Wunderground v.1.15,2013-12-06 02:25:00,
2013-12-05 20:30:00,20.6,13.9,30.31,NW,310,12.0,12.0,75,0.00,,,0.00,0,Wunderground v.1.15,2013-12-06 02:30:00,
2013-12-05 20:35:00,20.6,13.3,30.32,NW,321,12.0,12.0,73,0.00,,,0.00,0,Wunderground v.1.15,2013-12-06 02:35:00,
2013-12-05 20:40:00,20.5,12.9,30.32,NW,312,13.0,14.0,72,0.00,,,0.00,0,Wunderground v.1.15,2013-12-06 02:40:00,
2013-12-05 20:45:00,20.4,13.1,30.32,NW,315,13.0,14.0,73,0.00,,,0.00,0,Wunderground v.1.15,2013-12-06 02:45:00,
2013-12-05 20:50:00,20.4,12.8,30.33,NW,317,12.0,12.0,72,0.00,,,0.00,0,Wunderground v.1.15,2013-12-06 02:50:00,
2013-12-05 20:55:00,20.3,12.7,30.33,NW,321,12.0,12.0,72,0.00,,,0.00,0,Wunderground v.1.15,2013-12-06 02:55:00,
2013-12-05 21:00:00,20.3,13.0,30.33,NW,322,10.0,10.0,73,0.00,,,0.00,0,Wunderground v.1.15,2013-12-06 03:00:00,
2013-12-05 21:10:00,20.2,13.2,30.32,NW,321,8.0,8.0,74,0.00,,,0.00,0,Wunderground v.1.15,2013-12-06 03:10:00,
2013-12-05 21:15:00,20.2,12.9,30.33,NW,319,8.0,12.0,73,0.00,,,0.00,0,Wunderground v.1.15,2013-12-06 03:15:00,
2013-12-05 21:20:00,20.1,12.8,30.33,NW,313,11.0,13.0,73,0.00,,,0.00,0,Wunderground v.1.15,2013-12-06 03:20:00,
2013-12-05 21:30:00,20.0,13.0,30.34,NW,318,12.0,13.0,74,0.00,,,0.00,0,Wunderground v.1.15,2013-12-06 03:30:00,
2013-12-05 21:35:00,20.0,12.7,30.34,NW,306,12.0,15.0,73,0.00,,,0.00,0,Wunderground v.1.15,2013-12-06 03:35:00,
2013-12-05 21:40:00,20.0,12.7,30.34,NW,319,12.0,12.0,73,0.00,,,0.00,0,Wunderground v.1.15,2013-12-06 03:40:00,
2013-12-05 21:45:00,20.0,13.0,30.34,NW,315,11.0,12.0,74,0.00,,,0.00,0,Wunderground v.1.15,2013-12-06 03:45:00,
2013-12-05 21:50:00,20.0,13.0,30.35,NW,313,10.0,11.0,74,0.00,,,0.00,0,Wunderground v.1.15,2013-12-06 03:50:00,
2013-12-05 21:55:00,20.0,13.3,30.35,NW,313,10.0,13.0,75,0.00,,,0.00,0,Wunderground v.1.15,2013-12-06 03:55:00,
2013-12-05 22:05:00,19.9,13.3,30.34,NW,315,11.0,12.0,75,0.00,,,0.00,0,Wunderground v.1.15,2013-12-06 04:05:00,
2013-12-05 22:10:00,19.8,13.2,30.35,NW,321,11.0,11.0,75,0.00,,,0.00,0,Wunderground v.1.15,2013-12-06 04:10:00,
2013-12-05 22:15:00,19.9,13.6,30.36,NW,311,10.0,11.0,76,0.00,,,0.00,0,Wunderground v.1.15,2013-12-06 04:15:00,
2013-12-05 22:20:00,19.9,13.3,30.34,NW,311,11.0,12.0,75,0.00,,,0.00,0,Wunderground v.1.15,2013-12-06 04:20:00,
2013-12-05 22:25:00,19.9,13.3,30.33,NW,320,12.0,12.0,75,0.00,,,0.00,0,Wunderground v.1.15,2013-12-06 04:25:00,
2013-12-05 22:35:00,19.8,13.2,30.35,NW,312,13.0,14.0,75,0.00,,,0.00,0,Wunderground v.1.15,2013-12-06 04:35:00,
2013-12-05 22:40:00,19.9,13.6,30.35,NW,315,11.0,11.0,76,0.00,,,0.00,0,Wunderground v.1.15,2013-12-06 04:40:00,
2013-12-05 22:45:00,19.9,13.6,30.35,NW,320,12.0,12.0,76,0.00,,,0.00,0,Wunderground v.1.15,2013-12-06 04:45:00,
2013-12-05 22:50:00,19.9,13.6,30.34,NW,315,12.0,14.0,76,0.00,,,0.00,0,Wunderground v.1.15,2013-12-06 04:50:00,
2013-12-05 22:55:00,19.8,13.2,30.34,NW,321,12.0,14.0,75,0.00,,,0.00,0,Wunderground v.1.15,2013-12-06 04:55:00,
2013-12-05 23:00:00,19.8,13.2,30.34,NW,317,12.0,13.0,75,0.00,,,0.00,0,Wunderground v.1.15,2013-12-06 05:00:00,
2013-12-05 23:05:00,19.7,13.1,30.34,NW,322,12.0,13.0,75,0.00,,,0.00,0,Wunderground v.1.15,2013-12-06 05:05:00,
2013-12-05 23:10:00,19.7,13.1,30.34,NW,314,11.0,13.0,75,0.00,,,0.00,0,Wunderground v.1.15,2013-12-06 05:10:00,
2013-12-05 23:15:00,19.6,13.0,30.33,NW,318,13.0,13.0,75,0.00,,,0.00,0,Wunderground v.1.15,2013-12-06 05:15:00,
2013-12-05 23:20:00,19.6,13.0,30.34,NW,313,14.0,15.0,75,0.00,,,0.00,0,Wunderground v.1.15,2013-12-06 05:20:00,
2013-12-05 23:25:00,19.6,13.3,30.33,NW,323,12.0,15.0,76,0.00,,,0.00,0,Wunderground v.1.15,2013-12-06 05:25:00,
2013-12-05 23:30:00,19.7,13.4,30.34,NW,318,10.0,10.0,76,0.00,,,0.00,0,Wunderground v.1.15,2013-12-06 05:30:00,
2013-12-05 23:40:00,19.6,13.3,30.34,NW,322,10.0,10.0,76,0.00,,,0.00,0,Wunderground v.1.15,2013-12-06 05:40:00,
2013-12-05 23:45:00,19.5,13.2,30.35,NW,317,10.0,14.0,76,0.00,,,0.00,0,Wunderground v.1.15,2013-12-06 05:45:00,
2013-12-05 23:50:00,19.5,13.2,30.35,NW,319,11.0,11.0,76,0.00,,,0.00,0,Wunderground v.1.15,2013-12-06 05:50:00,
2013-12-05 23:55:00,19.5,13.2,30.34,NW,323,10.0,11.0,76,0.00,,,0.00,0,Wunderground v.1.15,2013-12-06 05:55:00,